Vivien A — TCYC4 — position and weather

sailwx.info

Track history (hours):
 
Tides and Currents Weather Stations Pressure Air Temp Water Temp Dewpoint Dewpoint Depression Visibility Wind Speed Wind Dir Waves Ship Positions

Vivien A

Last reported at 2018-Jan-23 11:29 UTC. Time now 2018-Jan-23 11:50 UTC.
Position N 49°40' W 003°13'.

Length 210 m; draft 8.9 m.

Type: Ship (hazmat cat B). MMSI: 271040635.

Date/timePositionNaut miles runAvg speedWind from/ knotsBaromVisibWave heightAir tempDewpointWater temp
2018-Jan-23 11:29N 49°40' W 003°13'8119.0
2018-Jan-23 07:14N 49°01' W 005°01'920.1
2018-Jan-23 06:48N 48°57' W 005°13'620.4
2018-Jan-23 06:29N 48°53' W 005°21'59818.0
2018-Jan-21 21:21N 39°29' W 009°57'618.3
2018-Jan-21 21:00N 39°23' W 009°57'918.2
2018-Jan-21 20:30N 39°14' W 009°58'918.1
2018-Jan-21 20:00N 39°05' W 009°58'918.0
2018-Jan-21 19:30N 38°56' W 009°58'917.9
2018-Jan-21 19:00N 38°47' W 009°58'917.9
2018-Jan-21 18:30N 38°38' W 009°57'917.7
2018-Jan-21 18:00N 38°29' W 009°54'917.7
2018-Jan-21 17:30N 38°21' W 009°51'918.0
2018-Jan-21 17:00N 38°13' W 009°47'918.0
2018-Jan-21 16:30N 38°04' W 009°43'918.1
2018-Jan-21 15:59N 37°55' W 009°39'918.2
2018-Jan-21 15:30N 37°47' W 009°35'918.0
2018-Jan-21 15:00N 37°39' W 009°30'1317.9
2018-Jan-21 14:17N 37°27' W 009°25'717.8
2018-Jan-21 13:53N 37°20' W 009°21'717.9
2018-Jan-21 13:29N 37°13' W 009°18'917.3
2018-Jan-21 12:56N 37°06' W 009°26'716.8
2018-Jan-21 12:30N 36°59' W 009°27'1417.4
2018-Jan-21 11:43N 36°47' W 009°19'1617.9
2018-Jan-21 10:50N 36°38' W 009°03'618.6
2018-Jan-21 10:29N 36°36' W 008°55'16518.5
2018-Jan-21 01:32N 35°57' W 005°36'116.8
2018-Jan-21 01:30N 35°57' W 005°35'  
2018-Jan-18 19:24N 28°51' W 013°18'513.1
2018-Jan-18 19:00N 28°47' W 013°21'713.4
2018-Jan-18 18:30N 28°41' W 013°24'  
Track history (hours):
 
Tides and Currents Weather Stations Pressure Air Temp Water Temp Dewpoint Dewpoint Depression Visibility Wind Speed Wind Dir Waves Ship Positions

Vivien A

Last reported at 2018-Jan-23 11:29 UTC. Time now 2018-Jan-23 11:50 UTC.
Position N 49°40' W 003°13'.

Length 210 m; draft 8.9 m.

Type: Ship (hazmat cat B). MMSI: 271040635.

Date/timePositionNaut miles runAvg speedWind from/ knotsBaromVisibWave heightAir tempDewpointWater temp
2018-Jan-23 11:29N 49°40' W 003°13'8119.0
2018-Jan-23 07:14N 49°01' W 005°01'920.1
2018-Jan-23 06:48N 48°57' W 005°13'620.4
2018-Jan-23 06:29N 48°53' W 005°21'59818.0
2018-Jan-21 21:21N 39°29' W 009°57'618.3
2018-Jan-21 21:00N 39°23' W 009°57'918.2
2018-Jan-21 20:30N 39°14' W 009°58'918.1
2018-Jan-21 20:00N 39°05' W 009°58'918.0
2018-Jan-21 19:30N 38°56' W 009°58'917.9
2018-Jan-21 19:00N 38°47' W 009°58'917.9
2018-Jan-21 18:30N 38°38' W 009°57'917.7
2018-Jan-21 18:00N 38°29' W 009°54'917.7
2018-Jan-21 17:30N 38°21' W 009°51'918.0
2018-Jan-21 17:00N 38°13' W 009°47'918.0
2018-Jan-21 16:30N 38°04' W 009°43'918.1
2018-Jan-21 15:59N 37°55' W 009°39'918.2
2018-Jan-21 15:30N 37°47' W 009°35'918.0
2018-Jan-21 15:00N 37°39' W 009°30'1317.9
2018-Jan-21 14:17N 37°27' W 009°25'717.8
2018-Jan-21 13:53N 37°20' W 009°21'717.9
2018-Jan-21 13:29N 37°13' W 009°18'917.3
2018-Jan-21 12:56N 37°06' W 009°26'716.8
2018-Jan-21 12:30N 36°59' W 009°27'1417.4
2018-Jan-21 11:43N 36°47' W 009°19'1617.9
2018-Jan-21 10:50N 36°38' W 009°03'618.6
2018-Jan-21 10:29N 36°36' W 008°55'16518.5
2018-Jan-21 01:32N 35°57' W 005°36'116.8
2018-Jan-21 01:30N 35°57' W 005°35'  
2018-Jan-18 19:24N 28°51' W 013°18'513.1
2018-Jan-18 19:00N 28°47' W 013°21'713.4
2018-Jan-18 18:30N 28°41' W 013°24'  

Dump ship's entire track history